Terminal Aerodrome Forecast
Issued by NWS Wichita, KS

Home | Current Version | Previous Version | Text Only | Print | Product List | Glossary On
Versions: 1 2 3 4 5 6 7 8 9 10 11 12
000
FTUS43 KICT 122327
TAFICT
TAF
KICT 122327Z 1300/1324 21007KT P6SM SKC
     FM131200 26009KT P6SM SKC
     FM131400 29013KT P6SM SKC
     FM131700 34019G27KT P6SM SCT250=

USA.gov is the U.S. government's official web portal to all federal, state and local government web resources and services.